sensor_id;sensor_type;location;lat;lon;timestamp;P1;durP1;ratioP1;P2;durP2;ratioP2
44228;SDS011;29904;51.058;5.378;2022-08-02T00:00:12;3.20;;;1.60;;
44228;SDS011;29904;51.058;5.378;2022-08-02T00:02:41;3.92;;;1.80;;
44228;SDS011;29904;51.058;5.378;2022-08-02T00:05:08;5.37;;;1.60;;
44228;SDS011;29904;51.058;5.378;2022-08-02T00:07:34;3.28;;;1.70;;
44228;SDS011;29904;51.058;5.378;2022-08-02T00:10:02;3.88;;;1.48;;
44228;SDS011;29904;51.058;5.378;2022-08-02T00:12:29;3.00;;;1.35;;
44228;SDS011;29904;51.058;5.378;2022-08-02T00:14:55;4.30;;;1.50;;
44228;SDS011;29904;51.058;5.378;2022-08-02T00:17:21;3.30;;;1.33;;
44228;SDS011;29904;51.058;5.378;2022-08-02T00:19:46;2.77;;;1.40;;
44228;SDS011;29904;51.058;5.378;2022-08-02T00:22:12;2.90;;;1.30;;
44228;SDS011;29904;51.058;5.378;2022-08-02T00:24:38;3.05;;;1.20;;
44228;SDS011;29904;51.058;5.378;2022-08-02T00:27:04;2.55;;;1.23;;
44228;SDS011;29904;51.058;5.378;2022-08-02T00:29:32;3.30;;;1.20;;
44228;SDS011;29904;51.058;5.378;2022-08-02T00:32:00;2.60;;;1.00;;
44228;SDS011;29904;51.058;5.378;2022-08-02T00:34:26;2.70;;;1.20;;
44228;SDS011;29904;51.058;5.378;2022-08-02T00:36:52;1.33;;;1.10;;
44228;SDS011;29904;51.058;5.378;2022-08-02T00:39:22;3.10;;;1.30;;
44228;SDS011;29904;51.058;5.378;2022-08-02T00:41:48;3.60;;;1.00;;
44228;SDS011;29904;51.058;5.378;2022-08-02T00:44:16;3.38;;;1.10;;
44228;SDS011;29904;51.058;5.378;2022-08-02T00:46:44;2.75;;;1.10;;
44228;SDS011;29904;51.058;5.378;2022-08-02T00:49:11;3.38;;;1.20;;
44228;SDS011;29904;51.058;5.378;2022-08-02T00:51:37;3.03;;;1.10;;
44228;SDS011;29904;51.058;5.378;2022-08-02T00:54:05;2.38;;;1.05;;
44228;SDS011;29904;51.058;5.378;2022-08-02T00:56:31;2.85;;;1.10;;
44228;SDS011;29904;51.058;5.378;2022-08-02T00:58:57;1.63;;;1.00;;
44228;SDS011;29904;51.058;5.378;2022-08-02T01:01:23;3.00;;;1.10;;
44228;SDS011;29904;51.058;5.378;2022-08-02T01:04:08;3.25;;;1.30;;
44228;SDS011;29904;51.058;5.378;2022-08-02T01:06:36;2.20;;;0.90;;
44228;SDS011;29904;51.058;5.378;2022-08-02T01:09:03;2.58;;;0.98;;
44228;SDS011;29904;51.058;5.378;2022-08-02T01:11:30;1.92;;;1.10;;
44228;SDS011;29904;51.058;5.378;2022-08-02T01:13:58;2.70;;;1.05;;
44228;SDS011;29904;51.058;5.378;2022-08-02T01:16:35;2.85;;;1.10;;
44228;SDS011;29904;51.058;5.378;2022-08-02T01:19:09;1.77;;;1.10;;
44228;SDS011;29904;51.058;5.378;2022-08-02T01:22:07;2.30;;;1.20;;
44228;SDS011;29904;51.058;5.378;2022-08-02T01:31:13;3.72;;;1.10;;
44228;SDS011;29904;51.058;5.378;2022-08-02T01:33:52;3.17;;;1.15;;
44228;SDS011;29904;51.058;5.378;2022-08-02T01:36:25;2.42;;;1.10;;
44228;SDS011;29904;51.058;5.378;2022-08-02T01:38:55;3.58;;;1.30;;
44228;SDS011;29904;51.058;5.378;2022-08-02T01:41:23;2.17;;;1.00;;
44228;SDS011;29904;51.058;5.378;2022-08-02T01:43:53;3.05;;;0.90;;
44228;SDS011;29904;51.058;5.378;2022-08-02T01:46:22;2.47;;;1.00;;
44228;SDS011;29904;51.058;5.378;2022-08-02T01:48:51;3.30;;;1.10;;
44228;SDS011;29904;51.058;5.378;2022-08-02T01:51:19;2.80;;;1.10;;
44228;SDS011;29904;51.058;5.378;2022-08-02T01:54:05;2.33;;;1.30;;
44228;SDS011;29904;51.058;5.378;2022-08-02T01:56:35;2.97;;;1.10;;
44228;SDS011;29904;51.058;5.378;2022-08-02T01:59:02;2.92;;;1.00;;
44228;SDS011;29904;51.058;5.378;2022-08-02T02:01:30;3.15;;;1.17;;
44228;SDS011;29904;51.058;5.378;2022-08-02T02:03:59;1.95;;;1.10;;
44228;SDS011;29904;51.058;5.378;2022-08-02T02:06:26;3.00;;;1.20;;
44228;SDS011;29904;51.058;5.378;2022-08-02T02:08:55;2.88;;;1.20;;
44228;SDS011;29904;51.058;5.378;2022-08-02T02:11:23;2.13;;;1.20;;
44228;SDS011;29904;51.058;5.378;2022-08-02T02:13:48;3.08;;;1.20;;
44228;SDS011;29904;51.058;5.378;2022-08-02T02:16:14;1.50;;;1.00;;
44228;SDS011;29904;51.058;5.378;2022-08-02T02:18:41;2.37;;;1.03;;
44228;SDS011;29904;51.058;5.378;2022-08-02T02:21:08;2.88;;;1.40;;
44228;SDS011;29904;51.058;5.378;2022-08-02T02:23:36;2.40;;;1.38;;
44228;SDS011;29904;51.058;5.378;2022-08-02T02:26:02;2.67;;;1.10;;
44228;SDS011;29904;51.058;5.378;2022-08-02T02:28:30;3.37;;;1.20;;
44228;SDS011;29904;51.058;5.378;2022-08-02T02:31:03;1.92;;;1.30;;
44228;SDS011;29904;51.058;5.378;2022-08-02T02:34:00;3.03;;;1.20;;
44228;SDS011;29904;51.058;5.378;2022-08-02T02:36:26;5.55;;;1.60;;
44228;SDS011;29904;51.058;5.378;2022-08-02T02:38:54;3.10;;;1.70;;
44228;SDS011;29904;51.058;5.378;2022-08-02T02:41:23;2.67;;;1.45;;
44228;SDS011;29904;51.058;5.378;2022-08-02T02:43:52;3.67;;;1.57;;
44228;SDS011;29904;51.058;5.378;2022-08-02T02:46:20;3.80;;;1.77;;
44228;SDS011;29904;51.058;5.378;2022-08-02T02:48:48;4.30;;;1.80;;
44228;SDS011;29904;51.058;5.378;2022-08-02T02:51:16;6.57;;;2.10;;
44228;SDS011;29904;51.058;5.378;2022-08-02T02:53:43;5.33;;;2.60;;
44228;SDS011;29904;51.058;5.378;2022-08-02T02:56:14;4.03;;;2.20;;
44228;SDS011;29904;51.058;5.378;2022-08-02T02:58:41;4.07;;;2.40;;
44228;SDS011;29904;51.058;5.378;2022-08-02T03:01:08;4.13;;;2.42;;
44228;SDS011;29904;51.058;5.378;2022-08-02T03:03:57;4.60;;;2.60;;
44228;SDS011;29904;51.058;5.378;2022-08-02T03:06:25;5.32;;;2.63;;
44228;SDS011;29904;51.058;5.378;2022-08-02T03:08:51;5.25;;;2.92;;
44228;SDS011;29904;51.058;5.378;2022-08-02T03:11:17;4.73;;;3.10;;
44228;SDS011;29904;51.058;5.378;2022-08-02T03:13:43;5.82;;;2.85;;
44228;SDS011;29904;51.058;5.378;2022-08-02T03:16:12;5.85;;;2.95;;
44228;SDS011;29904;51.058;5.378;2022-08-02T03:18:41;5.70;;;2.65;;
44228;SDS011;29904;51.058;5.378;2022-08-02T03:21:11;5.63;;;3.00;;
44228;SDS011;29904;51.058;5.378;2022-08-02T03:23:39;4.88;;;2.97;;
44228;SDS011;29904;51.058;5.378;2022-08-02T03:26:06;6.53;;;2.95;;
44228;SDS011;29904;51.058;5.378;2022-08-02T03:28:33;5.28;;;2.70;;
44228;SDS011;29904;51.058;5.378;2022-08-02T03:30:59;5.90;;;2.83;;
44228;SDS011;29904;51.058;5.378;2022-08-02T03:33:27;4.75;;;2.75;;
44228;SDS011;29904;51.058;5.378;2022-08-02T03:35:58;5.30;;;2.75;;
44228;SDS011;29904;51.058;5.378;2022-08-02T03:38:29;5.05;;;2.50;;
44228;SDS011;29904;51.058;5.378;2022-08-02T03:40:57;4.85;;;2.53;;
44228;SDS011;29904;51.058;5.378;2022-08-02T03:43:25;4.38;;;2.60;;
44228;SDS011;29904;51.058;5.378;2022-08-02T03:45:52;5.35;;;2.60;;
44228;SDS011;29904;51.058;5.378;2022-08-02T03:48:19;4.20;;;2.50;;
44228;SDS011;29904;51.058;5.378;2022-08-02T03:50:46;5.22;;;3.08;;
44228;SDS011;29904;51.058;5.378;2022-08-02T03:53:13;6.20;;;2.90;;
44228;SDS011;29904;51.058;5.378;2022-08-02T03:55:41;3.88;;;2.40;;
44228;SDS011;29904;51.058;5.378;2022-08-02T03:58:07;4.95;;;2.70;;
44228;SDS011;29904;51.058;5.378;2022-08-02T04:00:33;5.93;;;2.70;;
44228;SDS011;29904;51.058;5.378;2022-08-02T04:02:59;5.05;;;2.80;;
44228;SDS011;29904;51.058;5.378;2022-08-02T04:05:25;4.93;;;2.80;;
44228;SDS011;29904;51.058;5.378;2022-08-02T04:07:50;5.13;;;2.90;;
44228;SDS011;29904;51.058;5.378;2022-08-02T04:10:18;5.53;;;2.87;;
44228;SDS011;29904;51.058;5.378;2022-08-02T04:12:44;5.00;;;3.10;;
44228;SDS011;29904;51.058;5.378;2022-08-02T04:15:11;5.55;;;2.83;;
44228;SDS011;29904;51.058;5.378;2022-08-02T04:17:42;5.30;;;2.97;;
44228;SDS011;29904;51.058;5.378;2022-08-02T04:20:18;7.03;;;3.30;;
44228;SDS011;29904;51.058;5.378;2022-08-02T04:22:50;4.93;;;3.00;;
44228;SDS011;29904;51.058;5.378;2022-08-02T04:25:21;5.20;;;2.88;;
44228;SDS011;29904;51.058;5.378;2022-08-02T04:27:49;4.17;;;3.20;;
44228;SDS011;29904;51.058;5.378;2022-08-02T04:30:15;5.00;;;3.20;;
44228;SDS011;29904;51.058;5.378;2022-08-02T04:32:42;5.60;;;3.50;;
44228;SDS011;29904;51.058;5.378;2022-08-02T04:35:09;5.85;;;3.33;;
44228;SDS011;29904;51.058;5.378;2022-08-02T04:37:36;4.95;;;3.40;;
44228;SDS011;29904;51.058;5.378;2022-08-02T04:40:03;5.00;;;3.30;;
44228;SDS011;29904;51.058;5.378;2022-08-02T04:42:33;6.05;;;3.13;;
44228;SDS011;29904;51.058;5.378;2022-08-02T04:44:59;5.88;;;3.28;;
44228;SDS011;29904;51.058;5.378;2022-08-02T04:47:26;5.00;;;3.33;;
44228;SDS011;29904;51.058;5.378;2022-08-02T04:49:56;3.60;;;2.95;;
44228;SDS011;29904;51.058;5.378;2022-08-02T04:52:24;6.65;;;3.60;;
44228;SDS011;29904;51.058;5.378;2022-08-02T04:54:50;4.88;;;3.33;;
44228;SDS011;29904;51.058;5.378;2022-08-02T04:57:17;5.32;;;3.47;;
44228;SDS011;29904;51.058;5.378;2022-08-02T05:00:05;6.97;;;3.70;;
44228;SDS011;29904;51.058;5.378;2022-08-02T05:02:33;6.68;;;3.83;;
44228;SDS011;29904;51.058;5.378;2022-08-02T05:04:59;7.40;;;4.00;;
44228;SDS011;29904;51.058;5.378;2022-08-02T05:07:25;6.13;;;3.97;;
44228;SDS011;29904;51.058;5.378;2022-08-02T05:09:51;7.40;;;4.40;;
44228;SDS011;29904;51.058;5.378;2022-08-02T05:12:17;6.68;;;3.90;;
44228;SDS011;29904;51.058;5.378;2022-08-02T05:14:46;5.18;;;3.60;;
44228;SDS011;29904;51.058;5.378;2022-08-02T05:17:12;6.43;;;3.50;;
44228;SDS011;29904;51.058;5.378;2022-08-02T05:19:38;5.47;;;3.83;;
44228;SDS011;29904;51.058;5.378;2022-08-02T05:22:04;8.10;;;4.13;;
44228;SDS011;29904;51.058;5.378;2022-08-02T05:24:29;6.35;;;3.75;;
44228;SDS011;29904;51.058;5.378;2022-08-02T05:26:55;6.37;;;3.93;;
44228;SDS011;29904;51.058;5.378;2022-08-02T05:29:21;6.80;;;4.07;;
44228;SDS011;29904;51.058;5.378;2022-08-02T05:31:47;6.00;;;4.20;;
44228;SDS011;29904;51.058;5.378;2022-08-02T05:34:13;5.97;;;4.13;;
44228;SDS011;29904;51.058;5.378;2022-08-02T05:36:39;6.67;;;3.97;;
44228;SDS011;29904;51.058;5.378;2022-08-02T05:39:05;5.82;;;4.05;;
44228;SDS011;29904;51.058;5.378;2022-08-02T05:41:31;6.88;;;3.97;;
44228;SDS011;29904;51.058;5.378;2022-08-02T05:43:57;5.38;;;3.63;;
44228;SDS011;29904;51.058;5.378;2022-08-02T05:46:22;7.38;;;4.32;;
44228;SDS011;29904;51.058;5.378;2022-08-02T05:48:48;5.33;;;4.30;;
44228;SDS011;29904;51.058;5.378;2022-08-02T05:51:48;5.63;;;4.50;;
44228;SDS011;29904;51.058;5.378;2022-08-02T05:54:35;6.50;;;3.85;;
44228;SDS011;29904;51.058;5.378;2022-08-02T05:57:25;6.70;;;4.07;;
44228;SDS011;29904;51.058;5.378;2022-08-02T06:05:47;7.23;;;4.07;;
44228;SDS011;29904;51.058;5.378;2022-08-02T06:08:16;6.78;;;4.60;;
44228;SDS011;29904;51.058;5.378;2022-08-02T06:10:44;5.47;;;3.90;;
44228;SDS011;29904;51.058;5.378;2022-08-02T06:13:12;8.48;;;4.10;;
44228;SDS011;29904;51.058;5.378;2022-08-02T06:15:41;7.57;;;3.97;;
44228;SDS011;29904;51.058;5.378;2022-08-02T06:18:07;6.43;;;4.05;;
44228;SDS011;29904;51.058;5.378;2022-08-02T06:20:34;7.13;;;4.13;;
44228;SDS011;29904;51.058;5.378;2022-08-02T06:23:01;5.45;;;3.78;;
44228;SDS011;29904;51.058;5.378;2022-08-02T06:25:32;6.60;;;3.83;;
44228;SDS011;29904;51.058;5.378;2022-08-02T06:28:02;6.25;;;3.83;;
44228;SDS011;29904;51.058;5.378;2022-08-02T06:30:29;6.00;;;3.83;;
44228;SDS011;29904;51.058;5.378;2022-08-02T06:32:56;5.95;;;4.18;;
44228;SDS011;29904;51.058;5.378;2022-08-02T06:35:28;6.28;;;4.15;;
44228;SDS011;29904;51.058;5.378;2022-08-02T06:37:59;5.63;;;3.60;;
44228;SDS011;29904;51.058;5.378;2022-08-02T06:40:29;5.90;;;4.10;;
44228;SDS011;29904;51.058;5.378;2022-08-02T06:45:44;5.55;;;4.00;;
44228;SDS011;29904;51.058;5.378;2022-08-02T06:48:12;5.50;;;3.95;;
44228;SDS011;29904;51.058;5.378;2022-08-02T06:50:37;5.72;;;4.25;;
44228;SDS011;29904;51.058;5.378;2022-08-02T06:53:06;4.28;;;3.40;;
44228;SDS011;29904;51.058;5.378;2022-08-02T06:55:34;6.40;;;4.20;;
44228;SDS011;29904;51.058;5.378;2022-08-02T06:58:00;6.50;;;3.80;;
44228;SDS011;29904;51.058;5.378;2022-08-02T07:00:27;4.63;;;3.78;;
44228;SDS011;29904;51.058;5.378;2022-08-02T07:02:55;4.60;;;3.42;;
44228;SDS011;29904;51.058;5.378;2022-08-02T07:05:21;4.47;;;3.67;;
44228;SDS011;29904;51.058;5.378;2022-08-02T07:07:47;5.75;;;3.78;;
44228;SDS011;29904;51.058;5.378;2022-08-02T07:10:13;5.83;;;3.77;;
44228;SDS011;29904;51.058;5.378;2022-08-02T07:12:39;4.47;;;3.50;;
44228;SDS011;29904;51.058;5.378;2022-08-02T07:15:06;5.53;;;3.40;;
44228;SDS011;29904;51.058;5.378;2022-08-02T07:17:34;4.78;;;3.20;;
44228;SDS011;29904;51.058;5.378;2022-08-02T07:20:03;4.90;;;3.20;;
44228;SDS011;29904;51.058;5.378;2022-08-02T07:22:29;4.43;;;2.90;;
44228;SDS011;29904;51.058;5.378;2022-08-02T07:24:55;3.90;;;2.80;;
44228;SDS011;29904;51.058;5.378;2022-08-02T07:27:23;4.78;;;2.80;;
44228;SDS011;29904;51.058;5.378;2022-08-02T07:29:49;4.72;;;2.83;;
44228;SDS011;29904;51.058;5.378;2022-08-02T07:32:16;3.33;;;2.75;;
44228;SDS011;29904;51.058;5.378;2022-08-02T07:34:44;3.97;;;2.40;;
44228;SDS011;29904;51.058;5.378;2022-08-02T07:37:11;3.15;;;2.08;;
44228;SDS011;29904;51.058;5.378;2022-08-02T07:39:37;3.63;;;2.20;;
44228;SDS011;29904;51.058;5.378;2022-08-02T07:42:03;4.40;;;2.75;;
44228;SDS011;29904;51.058;5.378;2022-08-02T07:44:29;3.75;;;2.20;;
44228;SDS011;29904;51.058;5.378;2022-08-02T07:46:59;4.15;;;2.80;;
44228;SDS011;29904;51.058;5.378;2022-08-02T07:49:25;4.38;;;2.17;;
44228;SDS011;29904;51.058;5.378;2022-08-02T07:51:54;2.93;;;1.83;;
44228;SDS011;29904;51.058;5.378;2022-08-02T07:54:20;3.42;;;1.80;;
44228;SDS011;29904;51.058;5.378;2022-08-02T07:56:46;4.43;;;1.90;;
44228;SDS011;29904;51.058;5.378;2022-08-02T07:59:12;3.40;;;1.48;;
44228;SDS011;29904;51.058;5.378;2022-08-02T08:01:38;2.67;;;1.70;;
44228;SDS011;29904;51.058;5.378;2022-08-02T08:04:04;3.10;;;1.80;;
44228;SDS011;29904;51.058;5.378;2022-08-02T08:06:30;2.67;;;1.77;;
44228;SDS011;29904;51.058;5.378;2022-08-02T08:08:58;2.10;;;1.80;;
44228;SDS011;29904;51.058;5.378;2022-08-02T08:11:24;2.45;;;1.98;;
44228;SDS011;29904;51.058;5.378;2022-08-02T08:13:50;2.70;;;1.65;;
44228;SDS011;29904;51.058;5.378;2022-08-02T08:16:18;1.98;;;1.55;;
44228;SDS011;29904;51.058;5.378;2022-08-02T08:18:44;2.95;;;1.70;;
44228;SDS011;29904;51.058;5.378;2022-08-02T08:21:09;2.00;;;1.48;;
44228;SDS011;29904;51.058;5.378;2022-08-02T08:23:35;1.77;;;1.33;;
44228;SDS011;29904;51.058;5.378;2022-08-02T08:26:01;2.22;;;1.25;;
44228;SDS011;29904;51.058;5.378;2022-08-02T08:28:27;2.53;;;1.15;;
44228;SDS011;29904;51.058;5.378;2022-08-02T08:30:53;2.80;;;1.30;;
44228;SDS011;29904;51.058;5.378;2022-08-02T08:33:19;2.60;;;1.27;;
44228;SDS011;29904;51.058;5.378;2022-08-02T08:35:45;2.97;;;1.30;;
44228;SDS011;29904;51.058;5.378;2022-08-02T08:38:10;1.75;;;1.00;;
44228;SDS011;29904;51.058;5.378;2022-08-02T08:40:36;2.13;;;1.10;;
44228;SDS011;29904;51.058;5.378;2022-08-02T08:43:03;3.25;;;1.10;;
44228;SDS011;29904;51.058;5.378;2022-08-02T08:45:29;1.90;;;1.10;;
44228;SDS011;29904;51.058;5.378;2022-08-02T08:48:00;2.08;;;1.20;;
44228;SDS011;29904;51.058;5.378;2022-08-02T08:50:38;1.55;;;1.00;;
44228;SDS011;29904;51.058;5.378;2022-08-02T08:53:11;2.00;;;1.17;;
44228;SDS011;29904;51.058;5.378;2022-08-02T08:55:40;2.45;;;1.13;;
44228;SDS011;29904;51.058;5.378;2022-08-02T08:58:06;3.22;;;1.15;;
44228;SDS011;29904;51.058;5.378;2022-08-02T09:00:32;2.37;;;1.10;;
44228;SDS011;29904;51.058;5.378;2022-08-02T09:03:06;2.97;;;1.27;;
44228;SDS011;29904;51.058;5.378;2022-08-02T09:05:33;3.30;;;1.30;;
44228;SDS011;29904;51.058;5.378;2022-08-02T09:08:00;4.67;;;1.60;;
44228;SDS011;29904;51.058;5.378;2022-08-02T09:15:45;2.60;;;1.30;;
44228;SDS011;29904;51.058;5.378;2022-08-02T09:18:19;3.10;;;1.30;;
44228;SDS011;29904;51.058;5.378;2022-08-02T09:20:57;2.42;;;1.60;;
44228;SDS011;29904;51.058;5.378;2022-08-02T09:23:25;2.58;;;1.30;;
44228;SDS011;29904;51.058;5.378;2022-08-02T09:26:07;1.75;;;1.25;;
44228;SDS011;29904;51.058;5.378;2022-08-02T09:28:34;2.13;;;1.40;;
44228;SDS011;29904;51.058;5.378;2022-08-02T09:31:08;4.70;;;1.45;;
44228;SDS011;29904;51.058;5.378;2022-08-02T09:33:42;4.00;;;1.30;;
44228;SDS011;29904;51.058;5.378;2022-08-02T09:36:11;3.42;;;1.10;;
44228;SDS011;29904;51.058;5.378;2022-08-02T09:38:38;2.28;;;1.27;;
44228;SDS011;29904;51.058;5.378;2022-08-02T09:41:05;3.40;;;1.42;;
44228;SDS011;29904;51.058;5.378;2022-08-02T09:43:44;2.15;;;1.30;;
44228;SDS011;29904;51.058;5.378;2022-08-02T09:51:27;2.85;;;1.50;;
44228;SDS011;29904;51.058;5.378;2022-08-02T09:54:04;1.95;;;1.20;;
44228;SDS011;29904;51.058;5.378;2022-08-02T09:56:43;3.65;;;1.40;;
44228;SDS011;29904;51.058;5.378;2022-08-02T09:59:13;1.45;;;1.17;;
44228;SDS011;29904;51.058;5.378;2022-08-02T10:01:43;3.10;;;1.40;;
44228;SDS011;29904;51.058;5.378;2022-08-02T10:04:11;4.95;;;1.38;;
44228;SDS011;29904;51.058;5.378;2022-08-02T10:06:38;2.65;;;1.25;;
44228;SDS011;29904;51.058;5.378;2022-08-02T10:09:08;2.97;;;1.30;;
44228;SDS011;29904;51.058;5.378;2022-08-02T10:11:35;3.15;;;1.50;;
44228;SDS011;29904;51.058;5.378;2022-08-02T10:14:02;2.33;;;1.25;;
44228;SDS011;29904;51.058;5.378;2022-08-02T10:16:29;1.58;;;1.17;;
44228;SDS011;29904;51.058;5.378;2022-08-02T10:18:56;2.00;;;1.20;;
44228;SDS011;29904;51.058;5.378;2022-08-02T10:24:13;2.50;;;1.30;;
44228;SDS011;29904;51.058;5.378;2022-08-02T10:26:44;1.87;;;1.20;;
44228;SDS011;29904;51.058;5.378;2022-08-02T10:29:14;3.60;;;1.20;;
44228;SDS011;29904;51.058;5.378;2022-08-02T10:31:48;2.33;;;1.23;;
44228;SDS011;29904;51.058;5.378;2022-08-02T10:34:19;2.90;;;1.08;;
44228;SDS011;29904;51.058;5.378;2022-08-02T10:36:48;3.08;;;1.10;;
44228;SDS011;29904;51.058;5.378;2022-08-02T10:39:16;2.47;;;1.02;;
44228;SDS011;29904;51.058;5.378;2022-08-02T10:41:49;3.90;;;1.30;;
44228;SDS011;29904;51.058;5.378;2022-08-02T10:44:26;2.75;;;1.20;;
44228;SDS011;29904;51.058;5.378;2022-08-02T10:49:55;2.38;;;1.30;;
44228;SDS011;29904;51.058;5.378;2022-08-02T10:52:23;1.75;;;1.10;;
44228;SDS011;29904;51.058;5.378;2022-08-02T10:57:34;1.35;;;1.10;;
44228;SDS011;29904;51.058;5.378;2022-08-02T11:00:26;2.85;;;1.35;;
44228;SDS011;29904;51.058;5.378;2022-08-02T11:02:51;3.22;;;1.00;;
44228;SDS011;29904;51.058;5.378;2022-08-02T11:05:26;2.22;;;1.20;;
44228;SDS011;29904;51.058;5.378;2022-08-02T11:07:54;2.60;;;1.20;;
44228;SDS011;29904;51.058;5.378;2022-08-02T11:10:27;3.63;;;1.13;;
44228;SDS011;29904;51.058;5.378;2022-08-02T11:13:08;1.92;;;1.10;;
44228;SDS011;29904;51.058;5.378;2022-08-02T11:18:21;2.75;;;1.00;;
44228;SDS011;29904;51.058;5.378;2022-08-02T11:21:24;2.50;;;1.00;;
44228;SDS011;29904;51.058;5.378;2022-08-02T11:23:52;1.83;;;0.90;;
44228;SDS011;29904;51.058;5.378;2022-08-02T11:28:55;1.60;;;0.90;;
44228;SDS011;29904;51.058;5.378;2022-08-02T11:31:23;1.77;;;1.02;;
44228;SDS011;29904;51.058;5.378;2022-08-02T11:33:49;2.20;;;0.80;;
44228;SDS011;29904;51.058;5.378;2022-08-02T11:36:16;1.83;;;0.85;;
44228;SDS011;29904;51.058;5.378;2022-08-02T11:38:44;2.08;;;1.00;;
44228;SDS011;29904;51.058;5.378;2022-08-02T11:41:19;3.40;;;0.93;;
44228;SDS011;29904;51.058;5.378;2022-08-02T11:43:53;1.42;;;0.85;;
44228;SDS011;29904;51.058;5.378;2022-08-02T11:46:19;1.90;;;0.82;;
44228;SDS011;29904;51.058;5.378;2022-08-02T11:48:45;5.10;;;0.98;;
44228;SDS011;29904;51.058;5.378;2022-08-02T11:51:12;1.52;;;0.93;;
44228;SDS011;29904;51.058;5.378;2022-08-02T11:53:48;1.05;;;0.80;;
44228;SDS011;29904;51.058;5.378;2022-08-02T11:56:17;1.90;;;0.88;;
44228;SDS011;29904;51.058;5.378;2022-08-02T12:01:33;2.20;;;0.85;;
44228;SDS011;29904;51.058;5.378;2022-08-02T12:04:01;2.10;;;0.60;;
44228;SDS011;29904;51.058;5.378;2022-08-02T12:06:29;1.55;;;0.77;;
44228;SDS011;29904;51.058;5.378;2022-08-02T12:09:09;2.00;;;0.90;;
44228;SDS011;29904;51.058;5.378;2022-08-02T12:11:37;2.30;;;0.70;;
44228;SDS011;29904;51.058;5.378;2022-08-02T12:14:06;1.33;;;0.70;;
44228;SDS011;29904;51.058;5.378;2022-08-02T12:16:33;0.82;;;0.75;;
44228;SDS011;29904;51.058;5.378;2022-08-02T12:19:22;2.60;;;0.60;;
44228;SDS011;29904;51.058;5.378;2022-08-02T12:22:06;1.85;;;0.80;;
44228;SDS011;29904;51.058;5.378;2022-08-02T12:24:32;1.70;;;0.70;;
44228;SDS011;29904;51.058;5.378;2022-08-02T12:26:58;1.57;;;0.80;;
44228;SDS011;29904;51.058;5.378;2022-08-02T12:29:30;1.65;;;0.70;;
44228;SDS011;29904;51.058;5.378;2022-08-02T12:31:57;1.33;;;0.70;;
44228;SDS011;29904;51.058;5.378;2022-08-02T12:34:23;1.38;;;0.80;;
44228;SDS011;29904;51.058;5.378;2022-08-02T12:36:59;1.45;;;0.80;;
44228;SDS011;29904;51.058;5.378;2022-08-02T12:39:33;1.40;;;0.68;;
44228;SDS011;29904;51.058;5.378;2022-08-02T12:42:09;1.58;;;0.70;;
44228;SDS011;29904;51.058;5.378;2022-08-02T12:44:49;1.35;;;0.60;;
44228;SDS011;29904;51.058;5.378;2022-08-02T12:47:19;1.63;;;0.60;;
44228;SDS011;29904;51.058;5.378;2022-08-02T12:49:46;0.68;;;0.52;;
44228;SDS011;29904;51.058;5.378;2022-08-02T12:52:32;2.35;;;0.77;;
44228;SDS011;29904;51.058;5.378;2022-08-02T12:55:00;2.10;;;0.70;;
44228;SDS011;29904;51.058;5.378;2022-08-02T12:57:49;1.58;;;0.60;;
44228;SDS011;29904;51.058;5.378;2022-08-02T13:00:26;1.50;;;0.60;;
44228;SDS011;29904;51.058;5.378;2022-08-02T13:02:55;1.80;;;0.63;;
44228;SDS011;29904;51.058;5.378;2022-08-02T13:05:22;1.40;;;0.70;;
44228;SDS011;29904;51.058;5.378;2022-08-02T13:07:48;1.10;;;0.60;;
44228;SDS011;29904;51.058;5.378;2022-08-02T13:10:14;0.70;;;0.60;;
44228;SDS011;29904;51.058;5.378;2022-08-02T13:12:42;0.93;;;0.60;;
44228;SDS011;29904;51.058;5.378;2022-08-02T13:15:12;0.98;;;0.60;;
44228;SDS011;29904;51.058;5.378;2022-08-02T13:17:37;1.10;;;0.67;;
44228;SDS011;29904;51.058;5.378;2022-08-02T13:20:04;1.00;;;0.73;;
44228;SDS011;29904;51.058;5.378;2022-08-02T13:22:32;0.88;;;0.60;;
44228;SDS011;29904;51.058;5.378;2022-08-02T13:24:58;0.80;;;0.65;;
44228;SDS011;29904;51.058;5.378;2022-08-02T13:27:24;1.57;;;0.63;;
44228;SDS011;29904;51.058;5.378;2022-08-02T13:29:53;0.80;;;0.65;;
44228;SDS011;29904;51.058;5.378;2022-08-02T13:32:20;1.17;;;0.70;;
44228;SDS011;29904;51.058;5.378;2022-08-02T13:34:46;2.58;;;0.70;;
44228;SDS011;29904;51.058;5.378;2022-08-02T13:37:12;2.00;;;0.90;;
44228;SDS011;29904;51.058;5.378;2022-08-02T13:39:38;2.67;;;0.57;;
44228;SDS011;29904;51.058;5.378;2022-08-02T13:42:04;0.80;;;0.60;;
44228;SDS011;29904;51.058;5.378;2022-08-02T13:44:30;2.07;;;0.70;;
44228;SDS011;29904;51.058;5.378;2022-08-02T13:46:59;3.10;;;0.70;;
44228;SDS011;29904;51.058;5.378;2022-08-02T13:49:26;1.63;;;0.50;;
44228;SDS011;29904;51.058;5.378;2022-08-02T13:51:51;3.53;;;0.80;;
44228;SDS011;29904;51.058;5.378;2022-08-02T13:54:19;1.47;;;0.50;;
44228;SDS011;29904;51.058;5.378;2022-08-02T13:56:45;1.10;;;0.60;;
44228;SDS011;29904;51.058;5.378;2022-08-02T13:59:11;2.00;;;0.73;;
44228;SDS011;29904;51.058;5.378;2022-08-02T14:01:37;2.67;;;0.75;;
44228;SDS011;29904;51.058;5.378;2022-08-02T14:04:03;2.90;;;0.80;;
44228;SDS011;29904;51.058;5.378;2022-08-02T14:06:29;1.73;;;0.70;;
44228;SDS011;29904;51.058;5.378;2022-08-02T14:08:55;1.30;;;0.70;;
44228;SDS011;29904;51.058;5.378;2022-08-02T14:11:21;1.52;;;0.63;;
44228;SDS011;29904;51.058;5.378;2022-08-02T14:13:47;2.17;;;0.70;;
44228;SDS011;29904;51.058;5.378;2022-08-02T14:16:15;0.90;;;0.60;;
44228;SDS011;29904;51.058;5.378;2022-08-02T14:18:40;2.42;;;0.73;;
44228;SDS011;29904;51.058;5.378;2022-08-02T14:21:06;3.40;;;0.63;;
44228;SDS011;29904;51.058;5.378;2022-08-02T14:23:32;2.60;;;0.50;;
44228;SDS011;29904;51.058;5.378;2022-08-02T14:26:00;1.83;;;0.50;;
44228;SDS011;29904;51.058;5.378;2022-08-02T14:28:25;1.77;;;0.50;;
44228;SDS011;29904;51.058;5.378;2022-08-02T14:30:52;1.10;;;0.80;;
44228;SDS011;29904;51.058;5.378;2022-08-02T14:33:18;1.42;;;0.60;;
44228;SDS011;29904;51.058;5.378;2022-08-02T14:35:43;2.30;;;0.70;;
44228;SDS011;29904;51.058;5.378;2022-08-02T14:38:09;1.00;;;0.70;;
44228;SDS011;29904;51.058;5.378;2022-08-02T14:40:35;1.33;;;0.65;;
44228;SDS011;29904;51.058;5.378;2022-08-02T14:43:01;1.90;;;0.70;;
44228;SDS011;29904;51.058;5.378;2022-08-02T14:45:28;2.50;;;0.63;;
44228;SDS011;29904;51.058;5.378;2022-08-02T14:47:54;1.47;;;0.83;;
44228;SDS011;29904;51.058;5.378;2022-08-02T14:50:21;1.60;;;0.60;;
44228;SDS011;29904;51.058;5.378;2022-08-02T14:52:47;0.82;;;0.50;;
44228;SDS011;29904;51.058;5.378;2022-08-02T14:55:14;2.97;;;0.60;;
44228;SDS011;29904;51.058;5.378;2022-08-02T14:57:41;3.40;;;0.65;;
44228;SDS011;29904;51.058;5.378;2022-08-02T15:00:07;1.87;;;0.60;;
44228;SDS011;29904;51.058;5.378;2022-08-02T15:02:34;0.70;;;0.60;;
44228;SDS011;29904;51.058;5.378;2022-08-02T15:05:02;1.77;;;0.63;;
44228;SDS011;29904;51.058;5.378;2022-08-02T15:07:27;1.75;;;0.70;;
44228;SDS011;29904;51.058;5.378;2022-08-02T15:09:53;3.88;;;0.70;;
44228;SDS011;29904;51.058;5.378;2022-08-02T15:12:21;1.40;;;0.70;;
44228;SDS011;29904;51.058;5.378;2022-08-02T15:14:46;0.70;;;0.60;;
44228;SDS011;29904;51.058;5.378;2022-08-02T15:17:12;1.27;;;0.60;;
44228;SDS011;29904;51.058;5.378;2022-08-02T15:19:41;0.90;;;0.65;;
44228;SDS011;29904;51.058;5.378;2022-08-02T15:22:07;1.90;;;0.50;;
44228;SDS011;29904;51.058;5.378;2022-08-02T15:24:33;1.10;;;0.60;;
44228;SDS011;29904;51.058;5.378;2022-08-02T15:26:58;2.95;;;0.80;;
44228;SDS011;29904;51.058;5.378;2022-08-02T15:29:24;3.17;;;0.52;;
44228;SDS011;29904;51.058;5.378;2022-08-02T15:31:50;1.40;;;0.50;;
44228;SDS011;29904;51.058;5.378;2022-08-02T15:34:16;1.17;;;0.50;;
44228;SDS011;29904;51.058;5.378;2022-08-02T15:36:42;1.10;;;0.50;;
44228;SDS011;29904;51.058;5.378;2022-08-02T15:39:08;1.70;;;0.50;;